Time;durP1;ratioP1;P1;durP2;ratioP2;P2;SDS_P1;SDS_P2;PMS_P1;PMS_P2;Temp;Humidity;BMP_temperature;BMP_pressure;BME280_temperature;BME280_humidity;BME280_pressure;Samples;Min_cycle;Max_cycle;Signal;HPM_P1;HPM_P2
2023/12/01 00:01:46;;;;;;;26.08;19.40;;;3.30;92.40;;;;;;6218001;28;20049;-79
2023/12/01 00:04:47;;;;;;;24.35;18.35;;;3.30;92.40;;;;;;6216265;28;20099;-79
2023/12/01 00:07:49;;;;;;;21.67;16.77;;;3.30;92.40;;;;;;6219072;28;20049;-79
2023/12/01 00:10:52;;;;;;;27.67;19.85;;;3.30;92.40;;;;;;6218854;28;20053;-78
2023/12/01 00:13:54;;;;;;;23.25;18.38;;;3.30;92.40;;;;;;6218302;28;20046;-77
2023/12/01 00:16:56;;;;;;;25.15;19.73;;;3.40;92.40;;;;;;6218129;28;20050;-77
2023/12/01 00:19:58;;;;;;;23.20;19.17;;;3.40;92.70;;;;;;6218399;28;20048;-78
2023/12/01 00:22:59;;;;;;;27.52;19.88;;;3.40;92.40;;;;;;6216002;28;20052;-78
2023/12/01 00:26:03;;;;;;;24.23;19.15;;;3.40;92.30;;;;;;6217858;28;22947;-76
2023/12/01 00:29:04;;;;;;;28.88;19.98;;;3.40;92.30;;;;;;6217238;28;20537;-78
2023/12/01 00:32:07;;;;;;;31.55;22.15;;;3.40;92.30;;;;;;6217375;28;20466;-77
2023/12/01 00:35:09;;;;;;;28.13;21.15;;;3.40;92.40;;;;;;6215695;28;20069;-77
2023/12/01 00:38:11;;;;;;;28.65;20.17;;;3.40;92.30;;;;;;6217235;28;20046;-78
2023/12/01 00:41:14;;;;;;;29.75;19.55;;;3.40;92.20;;;;;;6216831;28;20054;-78
2023/12/01 00:44:16;;;;;;;32.08;23.40;;;3.40;92.30;;;;;;6217623;28;20057;-78
2023/12/01 00:47:18;;;;;;;33.72;25.45;;;3.40;92.30;;;;;;6216747;28;20041;-77
2023/12/01 00:50:19;;;;;;;35.50;23.30;;;3.40;92.30;;;;;;6215757;28;20073;-77
2023/12/01 00:53:21;;;;;;;33.42;23.10;;;3.40;92.20;;;;;;6216241;28;20053;-77
2023/12/01 00:56:24;;;;;;;37.58;25.60;;;3.40;92.20;;;;;;6216862;28;20049;-78
2023/12/01 00:59:26;;;;;;;33.72;23.15;;;3.40;92.20;;;;;;6214639;28;20056;-77
2023/12/01 01:02:28;;;;;;;34.25;24.00;;;3.30;92.20;;;;;;6215894;28;20522;-78
2023/12/01 01:05:29;;;;;;;31.08;22.77;;;3.30;92.20;;;;;;6216366;28;20486;-77
2023/12/01 01:08:31;;;;;;;31.65;24.20;;;3.30;92.20;;;;;;6216171;28;20045;-77
2023/12/01 01:11:35;;;;;;;37.08;23.45;;;3.30;92.10;;;;;;6215151;28;20045;-77
2023/12/01 01:14:37;;;;;;;36.45;22.98;;;3.30;92.20;;;;;;6216433;28;20042;-77
2023/12/01 01:17:39;;;;;;;35.00;24.38;;;3.20;92.20;;;;;;6218120;28;20049;-78
2023/12/01 01:20:40;;;;;;;35.15;23.67;;;3.20;92.20;;;;;;6221642;28;20046;-77
2023/12/01 01:23:42;;;;;;;35.88;25.98;;;3.20;92.20;;;;;;6221638;28;20045;-77
2023/12/01 01:26:45;;;;;;;38.67;26.13;;;3.20;92.20;;;;;;6222018;28;20045;-77
2023/12/01 01:29:47;;;;;;;30.65;22.70;;;3.20;92.20;;;;;;6214333;28;20045;-77
2023/12/01 01:32:49;;;;;;;41.00;21.52;;;3.20;92.20;;;;;;6221869;28;20419;-77
2023/12/01 01:35:50;;;;;;;32.92;21.85;;;3.20;92.20;;;;;;6230437;28;20050;-77
2023/12/01 01:38:52;;;;;;;37.65;24.70;;;3.20;92.20;;;;;;6227134;28;20042;-77
2023/12/01 01:41:56;;;;;;;34.67;23.42;;;3.20;92.20;;;;;;6221548;28;20052;-77
2023/12/01 01:44:58;;;;;;;33.67;22.38;;;3.20;92.20;;;;;;6222364;28;20407;-76
2023/12/01 01:48:00;;;;;;;35.88;24.10;;;3.20;92.20;;;;;;6221970;28;20427;-77
2023/12/01 01:51:03;;;;;;;45.83;24.98;;;3.20;92.30;;;;;;6221485;28;20045;-76
2023/12/01 01:54:05;;;;;;;36.05;24.20;;;3.20;92.30;;;;;;6221899;28;20049;-77
2023/12/01 01:57:09;;;;;;;38.78;24.52;;;3.20;92.40;;;;;;6221456;28;20054;-78
2023/12/01 02:00:16;;;;;;;38.47;25.60;;;3.20;92.40;;;;;;6221934;28;20046;-77
2023/12/01 02:03:18;;;;;;;35.90;24.85;;;3.30;92.40;;;;;;6221881;28;20042;-78
2023/12/01 02:06:30;;;;;;;37.80;25.13;;;3.30;92.40;;;;;;6221406;28;20137;-77
2023/12/01 02:09:33;;;;;;;36.65;25.23;;;3.30;92.40;;;;;;6221676;28;20042;-78
2023/12/01 02:12:36;;;;;;;36.13;23.83;;;3.30;92.30;;;;;;6222126;28;20045;-78
2023/12/01 02:15:38;;;;;;;39.05;25.35;;;3.40;92.30;;;;;;6221536;28;20049;-78
2023/12/01 02:18:40;;;;;;;37.30;24.13;;;3.30;92.30;;;;;;6220408;28;20050;-76
2023/12/01 02:21:45;;;;;;;39.28;23.85;;;3.30;92.20;;;;;;6221394;28;20046;-77
2023/12/01 02:24:47;;;;;;;39.75;25.02;;;3.30;92.10;;;;;;6221203;28;20050;-77
2023/12/01 02:27:49;;;;;;;38.33;24.55;;;3.20;92.00;;;;;;6221523;28;20049;-76
2023/12/01 02:30:53;;;;;;;45.20;23.33;;;3.10;91.90;;;;;;6220800;28;20053;-76
2023/12/01 02:33:55;;;;;;;36.50;25.13;;;3.00;91.80;;;;;;6220547;28;20042;-76
2023/12/01 02:36:59;;;;;;;40.10;26.25;;;2.90;91.80;;;;;;6220986;28;20128;-76
2023/12/01 02:40:01;;;;;;;38.10;25.75;;;2.80;91.70;;;;;;6221125;28;20049;-77
2023/12/01 02:43:03;;;;;;;43.97;26.10;;;2.70;91.70;;;;;;6220591;28;20503;-77
2023/12/01 02:46:05;;;;;;;48.03;28.70;;;2.70;92.00;;;;;;6220679;28;20124;-77
2023/12/01 02:49:08;;;;;;;49.28;27.73;;;2.60;92.10;;;;;;6220055;28;20451;-76
2023/12/01 02:52:11;;;;;;;43.58;30.58;;;2.70;92.30;;;;;;6220973;28;20446;-76
2023/12/01 02:55:12;;;;;;;44.97;28.02;;;2.60;92.30;;;;;;6220269;28;20419;-77
2023/12/01 02:58:14;;;;;;;47.55;28.00;;;2.60;92.40;;;;;;6220319;28;20076;-77
2023/12/01 03:01:17;;;;;;;41.92;29.50;;;2.60;92.40;;;;;;6220230;28;20046;-77
2023/12/01 03:04:18;;;;;;;49.25;30.80;;;2.60;92.40;;;;;;6219163;28;20053;-76
2023/12/01 03:07:21;;;;;;;48.78;28.55;;;2.60;92.40;;;;;;6220283;28;20107;-77
2023/12/01 03:10:24;;;;;;;47.45;29.15;;;2.50;92.60;;;;;;6224595;28;20049;-77
2023/12/01 03:13:26;;;;;;;58.17;33.40;;;2.50;92.50;;;;;;6220403;28;20042;-77
2023/12/01 03:16:27;;;;;;;51.33;31.55;;;2.50;92.60;;;;;;6221110;28;20046;-77
2023/12/01 03:19:29;;;;;;;46.63;28.98;;;2.50;92.90;;;;;;6223285;28;20034;-78
2023/12/01 03:22:32;;;;;;;51.83;31.63;;;2.50;92.60;;;;;;6225479;28;20053;-77
2023/12/01 03:25:34;;;;;;;59.13;29.70;;;2.40;92.60;;;;;;6225497;28;20053;-77
2023/12/01 03:28:35;;;;;;;48.35;30.60;;;2.40;92.60;;;;;;6225613;28;20057;-78
2023/12/01 03:31:37;;;;;;;50.67;31.90;;;2.30;92.30;;;;;;6224267;28;20054;-77
2023/12/01 03:34:39;;;;;;;50.15;30.13;;;2.10;92.30;;;;;;6224885;28;20041;-77
2023/12/01 03:37:43;;;;;;;50.80;28.73;;;2.10;92.50;;;;;;6224946;28;20049;-78
2023/12/01 03:40:45;;;;;;;57.67;33.67;;;2.00;92.50;;;;;;6224892;28;20128;-77
2023/12/01 03:43:47;;;;;;;50.45;29.60;;;2.00;92.60;;;;;;6225439;28;20045;-77
2023/12/01 03:46:49;;;;;;;55.67;32.70;;;2.00;92.60;;;;;;6224668;28;20046;-78
2023/12/01 03:49:50;;;;;;;51.30;31.60;;;2.00;92.60;;;;;;6223860;28;20048;-78
2023/12/01 03:52:53;;;;;;;62.75;33.25;;;1.90;92.60;;;;;;6225186;28;20049;-77
2023/12/01 03:55:55;;;;;;;56.53;33.50;;;1.90;92.60;;;;;;6225296;28;20045;-79
2023/12/01 03:58:57;;;;;;;58.88;32.97;;;1.90;92.60;;;;;;6224022;28;20046;-78
2023/12/01 04:01:59;;;;;;;52.53;31.83;;;1.80;92.60;;;;;;6247779;22;20023;-78
2023/12/01 04:05:00;;;;;;;61.60;32.45;;;1.80;92.70;;;;;;6226188;28;20076;-79
2023/12/01 04:08:04;;;;;;;66.65;35.10;;;1.80;92.70;;;;;;6228284;28;20049;-78
2023/12/01 04:11:07;;;;;;;64.03;35.92;;;1.80;92.80;;;;;;6226039;28;20049;-79
2023/12/01 04:14:08;;;;;;;57.47;32.00;;;1.80;92.80;;;;;;6216509;28;20057;-78
2023/12/01 04:17:10;;;;;;;53.90;32.28;;;1.80;92.70;;;;;;6210971;28;20188;-79
2023/12/01 04:20:21;;;;;;;62.72;34.20;;;1.80;92.80;;;;;;6210271;28;20050;-79
2023/12/01 04:23:25;;;;;;;61.33;32.17;;;1.80;92.80;;;;;;6213092;28;20042;-79
2023/12/01 04:26:28;;;;;;;57.13;32.05;;;1.80;92.80;;;;;;6206766;28;20057;-79
2023/12/01 04:29:30;;;;;;;61.95;33.03;;;1.80;92.80;;;;;;6221052;28;20044;-78
2023/12/01 04:32:32;;;;;;;58.25;32.47;;;1.80;92.90;;;;;;6224629;28;20052;-78
2023/12/01 04:35:35;;;;;;;60.38;32.53;;;1.80;93.00;;;;;;6211650;28;20045;-79
2023/12/01 04:38:38;;;;;;;57.05;33.33;;;1.80;93.00;;;;;;6219964;28;20533;-80
2023/12/01 04:41:40;;;;;;;61.50;33.05;;;1.80;93.00;;;;;;6217737;28;20521;-79
2023/12/01 04:44:42;;;;;;;64.20;33.45;;;1.80;93.00;;;;;;6210617;28;20415;-78
2023/12/01 04:47:45;;;;;;;67.70;33.50;;;1.80;93.00;;;;;;6210174;28;20479;-78
2023/12/01 04:50:48;;;;;;;58.10;32.08;;;1.80;93.00;;;;;;6209087;28;20039;-78
2023/12/01 04:53:51;;;;;;;61.70;35.30;;;1.70;92.90;;;;;;6208619;28;20046;-78
2023/12/01 04:56:53;;;;;;;68.70;34.33;;;1.70;93.00;;;;;;6208678;28;20050;-78
2023/12/01 04:59:56;;;;;;;54.65;32.85;;;1.70;93.00;;;;;;6208998;28;20050;-78
2023/12/01 05:02:59;;;;;;;57.00;31.90;;;1.70;93.00;;;;;;6204337;28;20046;-79
2023/12/01 05:06:01;;;;;;;60.10;34.75;;;1.70;93.00;;;;;;6208700;28;20457;-78
2023/12/01 05:09:16;;;;;;;60.85;31.92;;;1.70;93.20;;;;;;6215766;28;20399;-79
2023/12/01 05:12:18;;;;;;;56.03;33.38;;;1.70;93.10;;;;;;6211215;28;20053;-79
2023/12/01 05:15:22;;;;;;;60.75;32.40;;;1.70;93.10;;;;;;6215126;28;20057;-78
2023/12/01 05:18:24;;;;;;;63.25;34.53;;;1.70;93.20;;;;;;6203547;28;20571;-78
2023/12/01 05:21:26;;;;;;;54.55;29.52;;;1.70;93.10;;;;;;6210400;28;20411;-78
2023/12/01 05:24:29;;;;;;;64.28;33.72;;;1.70;93.20;;;;;;6215642;28;20418;-77
2023/12/01 05:27:30;;;;;;;59.58;31.88;;;1.70;93.30;;;;;;6215887;28;20073;-78
2023/12/01 05:30:34;;;;;;;58.78;33.85;;;1.70;93.30;;;;;;6210672;28;20038;-78
2023/12/01 05:33:38;;;;;;;61.25;33.00;;;1.80;93.40;;;;;;6211522;28;20046;-77
2023/12/01 05:36:40;;;;;;;55.10;31.17;;;1.80;93.50;;;;;;6209071;28;20042;-77
2023/12/01 05:39:43;;;;;;;55.15;32.00;;;1.80;93.40;;;;;;6212165;28;20046;-78
2023/12/01 05:42:45;;;;;;;61.85;31.92;;;1.80;93.40;;;;;;6207888;28;20042;-78
2023/12/01 05:45:46;;;;;;;67.90;34.42;;;1.80;93.40;;;;;;6207266;28;20038;-78
2023/12/01 05:48:48;;;;;;;63.83;30.48;;;1.80;93.40;;;;;;6213233;28;20085;-78
2023/12/01 05:51:50;;;;;;;55.55;32.22;;;1.80;93.40;;;;;;6208367;28;20052;-77
2023/12/01 05:54:53;;;;;;;61.45;34.25;;;1.80;93.40;;;;;;6206526;28;20058;-78
2023/12/01 05:57:57;;;;;;;63.88;33.58;;;1.90;93.40;;;;;;6213796;28;20037;-77
2023/12/01 06:00:59;;;;;;;57.42;35.63;;;1.90;93.40;;;;;;6214156;28;20050;-78
2023/12/01 06:04:02;;;;;;;66.38;40.45;;;1.90;93.30;;;;;;6205698;28;20057;-78
2023/12/01 06:07:07;;;;;;;64.03;35.78;;;1.90;93.40;;;;;;6213291;28;20513;-78
2023/12/01 06:10:11;;;;;;;66.88;33.70;;;1.90;93.40;;;;;;6205558;28;20415;-78
2023/12/01 06:13:13;;;;;;;59.80;32.58;;;1.90;93.30;;;;;;6205836;28;20125;-79
2023/12/01 06:16:14;;;;;;;60.58;31.17;;;1.90;93.40;;;;;;6206563;28;20061;-78
2023/12/01 06:19:17;;;;;;;66.53;32.22;;;1.90;93.30;;;;;;6206260;28;20530;-78
2023/12/01 06:22:18;;;;;;;56.33;30.23;;;1.90;93.30;;;;;;6209598;28;20046;-78
2023/12/01 06:25:26;;;;;;;53.65;23.95;;;1.80;93.20;;;;;;6206587;28;20054;-79
2023/12/01 06:28:29;;;;;;;51.83;28.58;;;1.80;93.30;;;;;;6210932;28;20061;-78
2023/12/01 06:31:31;;;;;;;52.92;26.45;;;1.70;93.20;;;;;;6208889;28;20041;-78
2023/12/01 06:34:33;;;;;;;44.50;23.08;;;1.70;93.20;;;;;;6209371;28;20369;-77
2023/12/01 06:37:34;;;;;;;33.88;16.00;;;1.70;93.20;;;;;;6205938;28;20053;-78
2023/12/01 06:40:38;;;;;;;1.00;1.00;;;1.70;93.20;;;;;;6206423;28;20128;-78
2023/12/01 06:43:39;;;;;;;0.20;0.20;;;1.70;93.30;;;;;;6203294;28;20046;-77
2023/12/01 06:46:41;;;;;;;0.20;0.20;;;1.70;93.20;;;;;;6200767;28;20049;-79
2023/12/01 06:49:43;;;;;;;0.20;0.20;;;1.70;93.20;;;;;;6207146;28;20045;-79
2023/12/01 06:52:46;;;;;;;0.20;0.20;;;1.70;93.30;;;;;;6206931;28;20050;-78
2023/12/01 06:55:49;;;;;;;0.17;0.17;;;1.70;93.30;;;;;;6213164;28;20514;-78
2023/12/01 06:58:51;;;;;;;0.20;0.20;;;1.70;93.30;;;;;;6209230;28;20049;-78
2023/12/01 07:01:52;;;;;;;0.20;0.20;;;1.70;93.30;;;;;;6195604;28;20054;-78
2023/12/01 07:04:55;;;;;;;0.10;0.10;;;1.80;93.30;;;;;;6204227;28;20050;-78
2023/12/01 07:07:58;;;;;;;0.25;0.25;;;1.70;93.30;;;;;;6204903;28;20132;-77
2023/12/01 07:11:03;;;;;;;0.10;0.10;;;1.70;93.40;;;;;;6204565;28;20121;-78
2023/12/01 07:14:04;;;;;;;0.20;0.20;;;1.70;93.30;;;;;;6196411;28;20070;-78
2023/12/01 07:17:06;;;;;;;0.10;0.10;;;1.70;93.30;;;;;;6204181;28;20057;-78
2023/12/01 07:20:13;;;;;;;0.73;0.73;;;1.70;93.40;;;;;;6204161;28;20047;-77
2023/12/01 07:23:17;;;;;;;0.20;0.20;;;1.70;93.70;;;;;;6202124;28;20604;-77
2023/12/01 07:26:27;;;;;;;0.20;0.20;;;1.70;93.40;;;;;;6197402;28;20050;-78
2023/12/01 07:29:29;;;;;;;0.20;0.20;;;1.70;93.50;;;;;;6200208;28;20042;-76
2023/12/01 07:32:31;;;;;;;0.20;0.20;;;1.70;93.40;;;;;;6204693;28;20057;-77
2023/12/01 07:35:32;;;;;;;0.70;0.70;;;1.80;93.50;;;;;;6213285;28;20048;-77
2023/12/01 07:38:34;;;;;;;0.10;0.10;;;1.80;93.60;;;;;;6219995;28;20046;-77
2023/12/01 07:41:38;;;;;;;0.15;0.15;;;1.80;93.60;;;;;;6217157;28;20042;-77
2023/12/01 07:44:39;;;;;;;0.30;0.30;;;1.80;93.60;;;;;;6221770;28;20092;-77
2023/12/01 07:47:41;;;;;;;0.20;0.20;;;1.90;93.60;;;;;;6204955;28;20046;-77
2023/12/01 07:50:44;;;;;;;0.20;0.20;;;1.90;93.60;;;;;;6204227;28;20053;-77
2023/12/01 07:53:46;;;;;;;0.13;0.13;;;1.90;93.60;;;;;;6203848;28;20511;-77
2023/12/01 07:56:49;;;;;;;1.67;1.67;;;2.00;93.60;;;;;;6210022;28;20046;-76
2023/12/01 07:59:51;;;;;;;0.20;0.20;;;2.00;93.60;;;;;;6197948;28;20054;-77
2023/12/01 08:02:53;;;;;;;0.10;0.10;;;2.00;93.70;;;;;;6210256;28;20049;-79
2023/12/01 08:05:55;;;;;;;0.10;0.10;;;2.00;93.70;;;;;;6208546;28;20050;-79
2023/12/01 08:08:58;;;;;;;0.13;0.13;;;2.00;93.70;;;;;;6203643;28;20209;-78
2023/12/01 08:12:01;;;;;;;0.20;0.20;;;2.10;93.70;;;;;;6201950;28;20058;-78
2023/12/01 08:15:03;;;;;;;0.20;0.20;;;2.10;93.70;;;;;;6209727;28;20046;-79
2023/12/01 08:18:05;;;;;;;0.20;0.20;;;2.10;93.70;;;;;;6208273;28;20051;-77
2023/12/01 08:21:07;;;;;;;0.20;0.20;;;2.10;93.70;;;;;;6208115;28;20057;-77
2023/12/01 08:24:09;;;;;;;0.10;0.10;;;2.10;93.70;;;;;;6192709;28;20058;-79
2023/12/01 08:27:12;;;;;;;0.20;0.20;;;2.10;93.70;;;;;;6208097;28;20049;-77
2023/12/01 08:30:13;;;;;;;0.15;0.15;;;2.10;93.70;;;;;;6207376;28;20038;-78
2023/12/01 08:33:16;;;;;;;0.20;0.20;;;2.10;93.70;;;;;;6207151;28;20050;-77
2023/12/01 08:36:19;;;;;;;0.30;0.30;;;2.10;93.70;;;;;;6222682;28;20050;-78
2023/12/01 08:39:21;;;;;;;0.20;0.20;;;2.20;93.70;;;;;;6211537;28;20130;-79
2023/12/01 08:42:24;;;;;;;0.73;0.73;;;2.20;93.80;;;;;;6187597;28;20065;-79
2023/12/01 08:45:26;;;;;;;0.63;0.63;;;2.20;93.80;;;;;;6191176;28;20046;-78
2023/12/01 08:48:28;;;;;;;0.60;0.60;;;2.30;93.80;;;;;;6189267;28;20061;-79
2023/12/01 08:51:29;;;;;;;0.13;0.13;;;2.30;93.80;;;;;;6189260;28;20035;-77
2023/12/01 08:54:31;;;;;;;0.30;0.30;;;2.30;93.80;;;;;;6188952;28;20058;-79
2023/12/01 08:57:34;;;;;;;0.30;0.30;;;2.40;93.90;;;;;;6189972;28;20042;-78
2023/12/01 09:00:36;;;;;;;0.32;0.32;;;2.50;93.90;;;;;;6191279;28;20054;-79
2023/12/01 09:03:38;;;;;;;0.30;0.30;;;2.50;93.90;;;;;;6196210;28;20039;-79
2023/12/01 09:06:39;;;;;;;0.20;0.20;;;2.60;93.90;;;;;;6194096;28;20042;-78
2023/12/01 09:09:41;;;;;;;0.85;0.85;;;2.60;93.80;;;;;;6192089;28;20051;-78
2023/12/01 09:12:45;;;;;;;1.13;1.13;;;2.60;93.80;;;;;;6189167;28;20053;-78
2023/12/01 09:15:47;;;;;;;0.30;0.30;;;2.50;93.80;;;;;;6189518;28;20148;-79
2023/12/01 09:18:49;;;;;;;0.10;0.10;;;2.50;93.80;;;;;;6192019;28;20050;-79
2023/12/01 09:21:50;;;;;;;0.20;0.20;;;2.60;93.90;;;;;;6190128;28;20058;-80
2023/12/01 09:24:52;;;;;;;0.10;0.10;;;2.60;93.90;;;;;;6191064;28;20055;-78
2023/12/01 09:27:56;;;;;;;0.10;0.10;;;2.60;93.90;;;;;;6190311;28;20058;-78
2023/12/01 09:30:58;;;;;;;0.85;0.85;;;2.60;94.00;;;;;;6191219;28;20117;-77
2023/12/01 09:34:00;;;;;;;0.75;0.75;;;2.60;94.00;;;;;;6190058;28;20046;-78
2023/12/01 09:37:02;;;;;;;0.10;0.10;;;2.70;94.10;;;;;;6188290;28;21107;-78
2023/12/01 09:40:06;;;;;;;0.30;0.30;;;2.70;94.10;;;;;;6191473;28;20054;-79
2023/12/01 09:43:12;;;;;;;0.20;0.20;;;2.80;94.20;;;;;;6193532;28;20057;-78
2023/12/01 09:46:14;;;;;;;0.10;0.10;;;2.80;94.10;;;;;;6189294;28;21592;-78
2023/12/01 09:49:16;;;;;;;0.30;0.30;;;2.80;94.10;;;;;;6187488;28;20057;-78
2023/12/01 09:52:18;;;;;;;0.20;0.20;;;2.90;94.20;;;;;;6190387;28;20062;-77
2023/12/01 09:55:20;;;;;;;0.20;0.20;;;2.80;94.10;;;;;;6199386;28;20373;-78
2023/12/01 09:58:26;;;;;;;0.20;0.20;;;2.90;94.20;;;;;;6194452;28;20107;-78
2023/12/01 10:01:28;;;;;;;0.10;0.10;;;2.90;94.20;;;;;;6198206;28;20066;-78
2023/12/01 10:04:30;;;;;;;1.10;1.10;;;2.90;94.20;;;;;;6188095;28;20451;-80
2023/12/01 10:07:32;;;;;;;0.20;0.20;;;2.90;94.20;;;;;;6190508;28;20046;-78
2023/12/01 10:10:34;;;;;;;0.20;0.20;;;2.90;94.30;;;;;;6190012;28;20053;-79
2023/12/01 10:13:40;;;;;;;0.25;0.25;;;3.00;94.70;;;;;;6190325;28;20419;-80
2023/12/01 10:16:42;;;;;;;1.08;1.08;;;3.00;94.30;;;;;;6215766;22;20133;-78
2023/12/01 10:19:47;;;;;;;0.73;0.73;;;3.00;94.30;;;;;;6212895;28;20049;-77
2023/12/01 10:22:49;;;;;;;0.28;0.28;;;3.00;94.30;;;;;;6210223;28;20048;-77
2023/12/01 10:25:52;;;;;;;0.85;0.85;;;3.00;94.40;;;;;;6213751;28;20053;-77
2023/12/01 10:28:57;;;;;;;0.38;0.38;;;3.10;94.40;;;;;;6211997;28;20042;-77
2023/12/01 10:32:00;;;;;;;0.20;0.20;;;3.10;94.40;;;;;;6211091;28;20050;-77
2023/12/01 10:35:02;;;;;;;0.50;0.50;;;3.10;94.30;;;;;;6209740;28;20050;-78
2023/12/01 10:38:04;;;;;;;0.20;0.20;;;3.10;94.30;;;;;;6213742;28;20057;-78
2023/12/01 10:41:09;;;;;;;0.43;0.43;;;3.10;94.40;;;;;;6211296;28;20046;-77
2023/12/01 10:44:16;;;;;;;0.10;0.10;;;3.20;94.50;;;;;;6212978;28;20418;-80
2023/12/01 10:47:18;;;;;;;0.30;0.30;;;3.20;94.40;;;;;;6210549;28;20046;-77
2023/12/01 10:50:21;;;;;;;0.73;0.73;;;3.20;94.30;;;;;;6210515;28;20076;-76
2023/12/01 10:53:24;;;;;;;1.90;1.85;;;3.20;94.30;;;;;;6220436;28;20050;-77
2023/12/01 10:56:30;;;;;;;0.38;0.38;;;3.10;94.30;;;;;;6220929;28;20113;-77
2023/12/01 10:59:34;;;;;;;0.10;0.10;;;3.10;94.70;;;;;;6221873;28;20048;-79
2023/12/01 11:02:38;;;;;;;0.10;0.10;;;3.20;94.40;;;;;;6223380;28;20084;-77
2023/12/01 11:05:41;;;;;;;0.63;0.63;;;3.20;94.40;;;;;;6222988;28;20078;-77
2023/12/01 11:08:55;;;;;;;0.20;0.20;;;3.10;94.40;;;;;;6219845;28;21011;-77
2023/12/01 11:12:03;;;;;;;0.10;0.10;;;3.10;94.40;;;;;;6213520;28;20045;-78
2023/12/01 11:15:14;;;;;;;1.35;1.35;;;3.20;94.60;;;;;;6214821;28;20041;-78
2023/12/01 11:18:17;;;;;;;0.15;0.15;;;3.20;94.50;;;;;;6211625;28;20052;-77
2023/12/01 11:21:20;;;;;;;0.10;0.10;;;3.20;94.50;;;;;;6212855;28;20503;-78
2023/12/01 11:24:25;;;;;;;4.28;2.00;;;3.20;94.50;;;;;;6214937;28;20495;-78
2023/12/01 11:27:28;;;;;;;0.20;0.20;;;3.20;94.50;;;;;;6217103;28;20058;-77
2023/12/01 11:30:31;;;;;;;0.52;0.52;;;3.20;94.50;;;;;;6212909;28;20105;-78
2023/12/01 11:33:33;;;;;;;0.35;0.35;;;3.20;94.50;;;;;;6213569;28;20042;-79
2023/12/01 11:36:36;;;;;;;0.10;0.10;;;3.20;94.50;;;;;;6217121;28;20042;-78
2023/12/01 11:39:39;;;;;;;0.20;0.20;;;3.20;94.50;;;;;;6223527;28;20120;-79
2023/12/01 11:42:41;;;;;;;0.55;0.55;;;3.20;94.50;;;;;;6226370;28;20045;-78
2023/12/01 11:45:44;;;;;;;0.30;0.30;;;3.20;94.50;;;;;;6227794;28;20046;-78
2023/12/01 11:48:46;;;;;;;0.10;0.10;;;3.20;94.50;;;;;;6224051;28;20053;-78
2023/12/01 11:51:49;;;;;;;0.10;0.10;;;3.20;94.50;;;;;;6217071;28;20050;-80
2023/12/01 11:54:50;;;;;;;0.20;0.20;;;3.20;94.50;;;;;;6216356;28;20077;-79
2023/12/01 11:57:53;;;;;;;0.20;0.20;;;3.30;94.50;;;;;;6220193;28;20046;-78
2023/12/01 12:00:56;;;;;;;0.10;0.10;;;3.20;94.50;;;;;;6216331;28;20418;-79
2023/12/01 12:03:59;;;;;;;1.17;1.17;;;3.30;94.60;;;;;;6217934;28;20061;-80
2023/12/01 12:07:01;;;;;;;0.55;0.55;;;3.30;94.60;;;;;;6217780;28;20042;-80
2023/12/01 12:10:03;;;;;;;0.10;0.10;;;3.30;95.00;;;;;;6212275;28;20054;-79
2023/12/01 12:13:04;;;;;;;0.20;0.20;;;3.40;94.70;;;;;;6218217;28;20046;-82
2023/12/01 12:16:08;;;;;;;0.10;0.10;;;3.40;94.70;;;;;;6220373;28;20069;-80
2023/12/01 12:19:10;;;;;;;0.20;0.20;;;3.40;94.60;;;;;;6226080;28;20057;-79
2023/12/01 12:22:13;;;;;;;0.10;0.10;;;3.50;94.70;;;;;;6227095;28;20053;-80
2023/12/01 12:25:15;;;;;;;0.13;0.13;;;3.50;94.70;;;;;;6227284;28;20046;-80
2023/12/01 12:28:18;;;;;;;0.20;0.20;;;3.50;94.70;;;;;;6230365;28;20058;-80
2023/12/01 12:31:25;;;;;;;0.40;0.40;;;3.40;94.60;;;;;;6229557;28;20048;-80
2023/12/01 12:34:27;;;;;;;0.10;0.10;;;3.40;94.60;;;;;;6223032;28;20049;-80
2023/12/01 12:37:29;;;;;;;0.30;0.30;;;3.40;94.50;;;;;;6228992;28;20042;-80
2023/12/01 12:40:34;;;;;;;1.95;1.75;;;3.40;94.60;;;;;;6228987;28;20045;-80
2023/12/01 12:43:36;;;;;;;1.05;1.05;;;3.40;94.60;;;;;;6223907;28;20046;-80
2023/12/01 12:46:39;;;;;;;0.10;0.10;;;3.40;94.60;;;;;;6222912;28;20503;-79
2023/12/01 12:49:41;;;;;;;0.30;0.30;;;3.40;94.70;;;;;;6221811;28;20045;-79
2023/12/01 12:52:43;;;;;;;0.10;0.10;;;3.40;94.70;;;;;;6216745;28;20069;-82
2023/12/01 12:55:45;;;;;;;0.38;0.38;;;3.50;94.70;;;;;;6222004;28;20607;-80
2023/12/01 12:58:48;;;;;;;0.10;0.10;;;3.50;94.70;;;;;;6228500;28;20124;-79
2023/12/01 13:01:51;;;;;;;7.22;3.30;;;3.50;94.70;;;;;;6227990;28;20050;-82
2023/12/01 13:04:52;;;;;;;0.15;0.15;;;3.40;94.70;;;;;;6230756;28;20045;-79
2023/12/01 13:07:54;;;;;;;0.70;0.70;;;3.50;94.70;;;;;;6230985;28;20046;-78
2023/12/01 13:10:56;;;;;;;0.10;0.10;;;3.40;94.70;;;;;;6231575;28;20049;-79
2023/12/01 13:13:58;;;;;;;0.30;0.30;;;3.40;94.60;;;;;;6229841;28;20041;-78
2023/12/01 13:17:01;;;;;;;0.13;0.13;;;3.40;94.60;;;;;;6230531;28;20714;-81
2023/12/01 13:20:05;;;;;;;0.30;0.30;;;3.40;94.60;;;;;;6229319;28;20427;-80
2023/12/01 13:23:06;;;;;;;28.95;17.27;;;3.30;94.90;;;;;;6229426;28;20049;-80
2023/12/01 13:26:08;;;;;;;56.25;23.33;;;3.30;94.60;;;;;;6229325;28;20056;-78
2023/12/01 13:29:10;;;;;;;53.88;25.02;;;3.30;94.60;;;;;;6227257;28;20526;-79
2023/12/01 13:32:13;;;;;;;67.97;26.08;;;3.30;94.70;;;;;;6223621;28;20056;-79
2023/12/01 13:35:15;;;;;;;63.13;35.75;;;3.30;94.70;;;;;;6222317;28;20045;-79
2023/12/01 13:38:17;;;;;;;53.65;30.52;;;3.30;94.70;;;;;;6221308;28;20046;-79
2023/12/01 13:41:18;;;;;;;57.00;25.27;;;3.30;94.60;;;;;;6223011;28;20048;-78
2023/12/01 13:44:20;;;;;;;73.55;30.55;;;3.30;94.70;;;;;;6221470;28;20462;-80
2023/12/01 13:47:23;;;;;;;83.93;35.65;;;3.30;94.70;;;;;;6226368;28;20058;-79
2023/12/01 13:50:25;;;;;;;86.35;38.72;;;3.30;94.70;;;;;;6220351;28;20073;-79
2023/12/01 13:53:27;;;;;;;82.00;35.95;;;3.20;94.70;;;;;;6222185;28;20143;-79
2023/12/01 13:56:29;;;;;;;83.05;36.05;;;3.30;94.70;;;;;;6222817;28;20089;-79
2023/12/01 13:59:31;;;;;;;86.70;35.00;;;3.30;94.70;;;;;;6222763;28;20045;-80
2023/12/01 14:02:34;;;;;;;83.15;37.08;;;3.30;94.70;;;;;;6218830;28;20034;-80
2023/12/01 14:05:36;;;;;;;76.00;35.95;;;3.30;94.70;;;;;;6218748;28;20543;-79
2023/12/01 14:08:37;;;;;;;89.20;38.10;;;3.20;94.60;;;;;;6222733;28;20053;-79
2023/12/01 14:11:39;;;;;;;87.97;36.03;;;3.20;94.70;;;;;;6216918;28;20052;-79
2023/12/01 14:14:41;;;;;;;86.60;38.70;;;3.20;94.70;;;;;;6217515;28;20038;-80
2023/12/01 14:17:45;;;;;;;84.88;35.30;;;3.20;94.70;;;;;;6211870;28;20502;-79
2023/12/01 14:20:46;;;;;;;81.45;38.58;;;3.20;94.70;;;;;;6215113;28;20072;-79
2023/12/01 14:23:48;;;;;;;98.38;38.97;;;3.20;94.80;;;;;;6214822;28;20050;-79
2023/12/01 14:26:50;;;;;;;85.35;38.72;;;3.20;94.70;;;;;;6218162;28;20049;-80
2023/12/01 14:29:52;;;;;;;93.28;37.92;;;3.20;94.70;;;;;;6214321;28;20071;-79
2023/12/01 14:32:55;;;;;;;84.28;38.92;;;3.20;94.70;;;;;;6215865;28;20487;-79
2023/12/01 14:35:57;;;;;;;89.57;42.17;;;3.20;94.70;;;;;;6222352;28;20041;-78
2023/12/01 14:38:59;;;;;;;93.40;47.47;;;3.20;94.60;;;;;;6218104;28;20492;-79
2023/12/01 14:42:02;;;;;;;84.78;40.70;;;3.20;94.70;;;;;;6220610;28;20176;-80
2023/12/01 14:45:06;;;;;;;79.50;37.47;;;3.20;94.60;;;;;;6216538;28;20058;-79
2023/12/01 14:48:09;;;;;;;92.82;38.45;;;3.20;94.60;;;;;;6214178;28;20057;-79
2023/12/01 14:51:11;;;;;;;96.40;41.55;;;3.20;94.60;;;;;;6218117;28;20136;-83
2023/12/01 14:54:12;;;;;;;106.82;40.80;;;3.10;94.60;;;;;;6220572;28;20069;-78
2023/12/01 14:57:14;;;;;;;90.80;38.17;;;3.10;94.60;;;;;;6217096;28;20452;-79
2023/12/01 15:00:17;;;;;;;89.40;39.47;;;3.10;94.60;;;;;;6217593;28;20057;-80
2023/12/01 15:03:20;;;;;;;91.72;44.13;;;3.10;94.60;;;;;;6217449;28;20045;-79
2023/12/01 15:06:22;;;;;;;81.43;33.38;;;3.10;94.60;;;;;;6217104;28;20046;-80
2023/12/01 15:09:24;;;;;;;81.30;35.22;;;3.10;94.60;;;;;;6216780;28;20511;-79
2023/12/01 15:12:26;;;;;;;93.75;39.97;;;3.00;94.60;;;;;;6214824;28;20050;-79
2023/12/01 15:15:28;;;;;;;91.60;41.80;;;3.00;94.60;;;;;;6213690;28;20045;-79
2023/12/01 15:18:31;;;;;;;85.35;40.97;;;3.00;94.60;;;;;;6215140;28;20426;-79
2023/12/01 15:21:32;;;;;;;73.50;30.73;;;3.00;94.60;;;;;;6214219;28;20076;-80
2023/12/01 15:24:35;;;;;;;89.75;37.28;;;2.90;94.50;;;;;;6218716;28;20042;-79
2023/12/01 15:27:36;;;;;;;89.38;39.30;;;2.80;94.50;;;;;;6215410;28;20053;-80
2023/12/01 15:30:38;;;;;;;94.20;41.70;;;2.80;94.50;;;;;;6212642;28;20065;-78
2023/12/01 15:33:41;;;;;;;84.70;36.75;;;2.80;94.60;;;;;;6226801;28;20042;-83
2023/12/01 15:36:43;;;;;;;93.28;38.15;;;2.70;94.50;;;;;;6222123;28;20673;-80
2023/12/01 15:39:44;;;;;;;89.55;35.63;;;2.70;94.60;;;;;;6223095;28;20053;-79
2023/12/01 15:42:46;;;;;;;93.40;40.15;;;2.70;94.60;;;;;;6223998;28;20524;-80
2023/12/01 15:45:48;;;;;;;100.80;44.30;;;2.70;94.70;;;;;;6224905;28;20418;-80
2023/12/01 15:48:51;;;;;;;96.18;43.50;;;2.70;94.80;;;;;;6225324;28;20491;-80